Time;durP1;ratioP1;P1;durP2;ratioP2;P2;SDS_P1;SDS_P2;PMS_P1;PMS_P2;Temp;Humidity;BMP_temperature;BMP_pressure;BME280_temperature;BME280_humidity;BME280_pressure;Samples;Min_cycle;Max_cycle;Signal;HPM_P1;HPM_P2
2021/07/10 00:00:53;;;;;;;9.40;5.43;;;;;;;21.51;57.48;100539.72;5040848;28;20041;-66
2021/07/10 00:03:20;;;;;;;15.88;6.78;;;;;;;21.53;57.38;100534.50;5044162;28;20084;-67
2021/07/10 00:05:47;;;;;;;15.75;7.70;;;;;;;21.52;57.14;100535.69;5042965;28;20463;-67
2021/07/10 00:08:14;;;;;;;11.80;6.72;;;;;;;21.51;57.43;100528.34;5047440;28;20136;-67
2021/07/10 00:10:41;;;;;;;17.08;6.82;;;;;;;21.51;57.64;100539.72;5037568;28;20132;-69
2021/07/10 00:13:08;;;;;;;15.50;5.88;;;;;;;21.56;57.33;100540.66;5038348;28;20110;-65
2021/07/10 00:15:35;;;;;;;11.63;5.75;;;;;;;21.52;57.39;100538.53;5037010;28;20053;-71
2021/07/10 00:18:02;;;;;;;18.35;6.63;;;;;;;21.54;57.66;100538.19;5048747;28;20525;-73
2021/07/10 00:20:29;;;;;;;13.60;5.90;;;;;;;21.55;57.48;100530.47;5049060;28;20132;-70
2021/07/10 00:22:56;;;;;;;10.93;5.68;;;;;;;21.51;57.36;100531.19;5044422;28;20076;-72
2021/07/10 00:25:23;;;;;;;13.38;4.97;;;;;;;21.53;57.55;100525.97;5040109;28;20077;-70
2021/07/10 00:27:51;;;;;;;12.25;5.55;;;;;;;21.44;57.50;100522.44;5053282;28;20080;-73
2021/07/10 00:30:20;;;;;;;18.45;5.93;;;;;;;21.50;57.57;100511.66;5036812;28;20078;-72
2021/07/10 00:32:48;;;;;;;15.70;5.90;;;;;;;21.50;57.39;100517.31;5049314;28;20045;-72
2021/07/10 00:35:18;;;;;;;24.23;6.00;;;;;;;21.38;57.39;100500.28;5066260;28;20044;-71
2021/07/10 00:37:45;;;;;;;12.43;5.82;;;;;;;21.48;57.49;100517.69;5046125;28;20108;-72
2021/07/10 00:40:12;;;;;;;13.38;5.65;;;;;;;21.51;57.64;100505.63;5040998;28;20055;-75
2021/07/10 00:42:40;;;;;;;14.23;6.35;;;;;;;21.49;57.48;100507.97;5048261;28;20539;-74
2021/07/10 00:45:10;;;;;;;17.70;6.28;;;;;;;21.51;57.30;100507.63;5048605;28;20137;-75
2021/07/10 00:47:37;;;;;;;;;;;;;;;21.42;57.25;100507.75;5040272;28;20088;-70
2021/07/10 00:50:20;;;;;;;12.90;5.50;;;;;;;21.24;57.27;100472.22;5043319;28;20015;-72
2021/07/10 00:52:47;;;;;;;14.80;5.85;;;;;;;21.26;57.60;100484.03;5042610;28;20077;-72
2021/07/10 00:55:14;;;;;;;14.90;6.35;;;;;;;21.35;57.91;100498.16;5034289;28;20128;-76
2021/07/10 00:57:42;;;;;;;11.38;5.57;;;;;;;21.32;57.95;100496.81;5037656;28;20053;-77
2021/07/10 01:00:12;;;;;;;16.33;5.85;;;;;;;21.29;57.80;100491.84;5046916;28;20044;-75
2021/07/10 01:02:43;;;;;;;15.13;6.07;;;;;;;21.23;57.96;100491.28;5044426;28;20124;-76
2021/07/10 01:05:13;;;;;;;13.60;5.63;;;;;;;21.22;57.98;100498.13;5039737;28;20045;-75
2021/07/10 01:07:40;;;;;;;13.85;5.47;;;;;;;21.19;58.00;100504.50;5038728;28;20125;-70
2021/07/10 01:10:09;;;;;;;17.23;6.85;;;;;;;21.05;58.46;100482.13;5050621;28;20063;-71
2021/07/10 01:12:38;;;;;;;13.27;5.60;;;;;;;21.12;58.40;100497.75;5043868;28;20081;-65
2021/07/10 01:15:07;;;;;;;15.43;6.73;;;;;;;21.01;58.59;100486.84;5042833;28;20132;-65
2021/07/10 01:17:34;;;;;;;13.50;6.03;;;;;;;20.96;58.25;100483.44;5038528;28;20069;-65
2021/07/10 01:20:05;;;;;;;14.77;6.82;;;;;;;21.04;58.40;100491.00;5041896;28;20144;-64
2021/07/10 01:22:34;;;;;;;16.52;6.15;;;;;;;21.07;58.45;100490.31;5045731;28;20076;-65
2021/07/10 01:25:02;;;;;;;16.73;5.85;;;;;;;21.04;58.53;100494.69;5033821;28;20137;-63
2021/07/10 01:27:29;;;;;;;19.05;5.82;;;;;;;21.04;58.64;100503.19;5046591;28;20080;-65
2021/07/10 01:29:56;;;;;;;15.18;6.60;;;;;;;21.06;58.59;100492.31;5035313;28;20128;-64
2021/07/10 01:32:24;;;;;;;12.77;5.50;;;;;;;21.11;58.34;100496.09;5038553;28;20151;-64
2021/07/10 01:34:51;;;;;;;16.42;6.28;;;;;;;21.05;58.56;100487.81;5050939;28;20048;-63
2021/07/10 01:37:18;;;;;;;17.05;6.15;;;;;;;21.15;58.61;100491.38;5045759;28;20072;-65
2021/07/10 01:39:45;;;;;;;12.25;5.15;;;;;;;21.16;58.55;100498.69;5056839;28;20110;-65
2021/07/10 01:42:12;;;;;;;14.05;5.57;;;;;;;21.21;58.31;100487.13;5040355;28;20136;-70
2021/07/10 01:44:39;;;;;;;13.15;5.43;;;;;;;21.12;58.43;100472.19;5036503;28;20132;-68
2021/07/10 01:47:06;;;;;;;11.43;4.60;;;;;;;21.16;58.28;100487.34;5043756;28;20083;-78
2021/07/10 01:49:33;;;;;;;11.35;5.28;;;;;;;21.13;58.57;100476.69;5050863;28;20059;-76
2021/07/10 01:52:00;;;;;;;13.32;5.03;;;;;;;21.16;58.59;100484.50;5040179;28;20072;-74
2021/07/10 01:54:27;;;;;;;9.45;4.60;;;;;;;21.06;58.27;100480.97;5045797;28;20065;-74
2021/07/10 01:56:54;;;;;;;10.55;5.75;;;;;;;21.08;58.60;100480.59;5038598;28;20461;-74
2021/07/10 01:59:21;;;;;;;16.20;5.10;;;;;;;21.08;58.42;100479.78;5051029;28;20041;-70
2021/07/10 02:01:49;;;;;;;11.35;5.22;;;;;;;21.11;58.39;100479.06;5040602;28;20064;-75
2021/07/10 02:04:18;;;;;;;14.75;4.55;;;;;;;21.06;58.52;100488.66;5045048;28;20123;-73
2021/07/10 02:06:46;;;;;;;10.02;4.97;;;;;;;20.99;58.59;100477.03;5036364;28;20132;-75
2021/07/10 02:09:13;;;;;;;16.23;5.97;;;;;;;20.98;58.76;100479.03;5038125;28;20560;-73
2021/07/10 02:11:48;;;;;;;11.77;5.22;;;;;;;20.92;58.57;100476.78;5038631;28;20045;-71
2021/07/10 02:14:17;;;;;;;11.63;5.25;;;;;;;20.89;58.65;100478.34;5032086;28;20481;-69
2021/07/10 02:16:46;;;;;;;8.50;5.03;;;;;;;20.59;59.09;100446.47;5036243;28;20077;-69
2021/07/10 02:19:13;;;;;;;13.27;5.35;;;;;;;20.64;58.98;100473.78;5038832;28;20072;-75
2021/07/10 02:21:40;;;;;;;19.17;7.38;;;;;;;20.68;59.24;100475.53;5036580;28;20049;-76
2021/07/10 02:24:07;;;;;;;12.38;5.25;;;;;;;20.73;59.29;100481.03;5050864;28;20044;-78
2021/07/10 02:26:35;;;;;;;12.50;5.65;;;;;;;20.76;59.09;100462.47;5049438;28;20124;-73
2021/07/10 02:29:05;;;;;;;14.98;6.25;;;;;;;20.78;59.40;100465.75;5042514;28;20416;-80
2021/07/10 02:31:34;;;;;;;9.45;4.82;;;;;;;20.83;59.18;100457.03;5043480;28;20072;-73
2021/07/10 02:34:02;;;;;;;12.23;5.13;;;;;;;20.67;59.04;100439.03;5033680;28;20045;-73
2021/07/10 02:36:29;;;;;;;11.20;5.35;;;;;;;20.83;59.03;100468.38;5042163;28;20079;-72
2021/07/10 02:38:57;;;;;;;11.65;4.55;;;;;;;20.69;58.96;100445.19;5044320;28;20114;-80
2021/07/10 02:41:25;;;;;;;10.82;5.25;;;;;;;20.73;59.06;100455.47;5046629;28;20084;-81
2021/07/10 02:43:52;;;;;;;11.15;4.78;;;;;;;20.79;59.02;100473.13;5043432;28;20051;-64
2021/07/10 02:46:19;;;;;;;14.02;5.53;;;;;;;20.77;59.23;100481.97;5043799;28;20041;-69
2021/07/10 02:48:47;;;;;;;10.85;5.70;;;;;;;20.72;59.10;100455.84;5032339;28;20045;-68
2021/07/10 02:51:14;;;;;;;15.48;5.25;;;;;;;20.67;59.28;100458.88;5033418;28;20128;-67
2021/07/10 02:53:42;;;;;;;18.02;7.18;;;;;;;20.78;59.02;100465.75;5038370;28;20954;-66
2021/07/10 02:56:08;;;;;;;13.07;5.78;;;;;;;20.83;59.08;100474.88;5042563;28;20124;-66
2021/07/10 02:58:35;;;;;;;12.63;5.70;;;;;;;20.86;58.96;100466.88;5043320;28;20136;-67
2021/07/10 03:01:02;;;;;;;11.52;5.57;;;;;;;20.92;58.85;100477.63;5034803;28;20107;-67
2021/07/10 03:03:29;;;;;;;11.82;5.88;;;;;;;20.96;58.71;100477.75;5039887;28;20045;-66
2021/07/10 03:05:56;;;;;;;10.57;5.70;;;;;;;20.88;58.58;100453.97;5031345;28;20037;-66
2021/07/10 03:08:23;;;;;;;17.05;6.90;;;;;;;21.02;58.52;100471.47;5050156;28;20048;-68
2021/07/10 03:10:49;;;;;;;15.05;5.10;;;;;;;21.08;58.51;100468.41;5021416;28;20129;-66
2021/07/10 03:13:16;;;;;;;13.95;6.45;;;;;;;21.12;58.13;100472.19;5035962;28;20041;-67
2021/07/10 03:15:43;;;;;;;12.35;4.80;;;;;;;21.02;58.25;100454.44;5033089;28;20050;-66
2021/07/10 03:18:10;;;;;;;10.95;4.65;;;;;;;21.06;57.97;100460.25;5036064;28;20160;-70
2021/07/10 03:20:37;;;;;;;11.52;4.93;;;;;;;21.00;58.19;100441.81;5035132;28;20080;-65
2021/07/10 03:23:04;;;;;;;10.32;4.18;;;;;;;21.14;58.20;100467.00;5035449;28;20128;-67
2021/07/10 03:25:31;;;;;;;8.30;4.70;;;;;;;21.14;58.24;100456.47;5042654;28;20489;-64
2021/07/10 03:27:58;;;;;;;16.00;5.88;;;;;;;21.17;57.97;100457.78;5045301;28;20081;-70
2021/07/10 03:30:26;;;;;;;14.63;5.60;;;;;;;21.16;57.90;100456.09;5039727;28;20172;-68
2021/07/10 03:32:53;;;;;;;18.08;6.28;;;;;;;21.16;58.09;100444.75;5051205;28;20119;-68
2021/07/10 03:35:21;;;;;;;11.02;6.00;;;;;;;21.16;57.77;100451.28;5035409;28;20056;-69
2021/07/10 03:37:49;;;;;;;13.65;5.72;;;;;;;21.14;58.18;100439.44;5034019;28;20061;-71
2021/07/10 03:40:19;;;;;;;15.30;6.45;;;;;;;20.97;57.99;100439.66;5039801;28;20068;-72
2021/07/10 03:42:46;;;;;;;12.95;5.80;;;;;;;21.04;58.19;100452.09;5054040;28;20408;-73
2021/07/10 03:45:15;;;;;;;16.40;5.43;;;;;;;21.01;58.14;100455.63;5037300;28;20129;-72
2021/07/10 03:47:47;;;;;;;11.32;5.55;;;;;;;20.95;58.37;100454.19;5053423;28;20057;-71
2021/07/10 03:50:15;;;;;;;10.73;4.55;;;;;;;20.88;58.39;100455.97;5045310;28;20485;-70
2021/07/10 03:52:42;;;;;;;10.05;5.68;;;;;;;20.80;58.10;100455.72;5041894;28;20124;-71
2021/07/10 03:55:11;;;;;;;9.52;5.57;;;;;;;20.77;58.59;100449.94;5032963;28;20541;-71
2021/07/10 03:57:39;;;;;;;12.27;5.28;;;;;;;20.64;58.72;100448.25;5053497;28;20555;-69
2021/07/10 04:00:13;;;;;;;12.32;5.93;;;;;;;20.48;58.82;100440.38;5051623;28;20148;-70
2021/07/10 04:02:39;;;;;;;14.70;6.55;;;;;;;20.47;59.29;100461.41;5035401;28;20083;-69
2021/07/10 04:05:07;;;;;;;11.43;5.80;;;;;;;20.44;59.24;100464.94;5038235;28;20063;-60
2021/07/10 04:07:34;;;;;;;13.40;6.55;;;;;;;20.44;59.72;100470.59;5048789;28;20562;-68
2021/07/10 04:10:03;;;;;;;11.45;5.85;;;;;;;20.35;59.62;100461.38;5047409;28;20053;-77
2021/07/10 04:12:29;;;;;;;13.82;6.03;;;;;;;20.02;59.88;100433.81;5047854;28;20045;-77
2021/07/10 04:15:00;;;;;;;11.27;5.90;;;;;;;20.19;59.99;100477.38;5043512;28;20091;-66
2021/07/10 04:17:31;;;;;;;13.13;6.55;;;;;;;20.02;60.21;100453.66;5043080;28;20051;-65
2021/07/10 04:19:59;;;;;;;14.88;5.13;;;;;;;19.98;60.27;100447.03;5049360;28;20076;-65
2021/07/10 04:22:27;;;;;;;10.07;5.13;;;;;;;20.04;60.57;100459.81;5048713;28;20125;-65
2021/07/10 04:24:54;;;;;;;11.45;5.20;;;;;;;19.97;60.67;100439.72;5047553;28;20139;-63
2021/07/10 04:27:21;;;;;;;11.05;5.28;;;;;;;20.09;60.58;100456.75;5042965;28;20482;-63
2021/07/10 04:29:49;;;;;;;10.80;5.10;;;;;;;19.73;60.83;100397.09;5036281;28;20519;-64
2021/07/10 04:32:17;;;;;;;14.15;5.55;;;;;;;20.09;60.71;100451.09;5041056;28;20143;-70
2021/07/10 04:34:44;;;;;;;11.10;5.05;;;;;;;20.10;60.68;100451.91;5044796;28;20079;-68
2021/07/10 04:37:11;;;;;;;9.70;5.13;;;;;;;20.10;60.57;100469.78;5038165;28;20081;-75
2021/07/10 04:39:38;;;;;;;13.45;5.95;;;;;;;20.07;60.78;100470.47;5046047;28;20089;-75
2021/07/10 04:42:05;;;;;;;12.82;5.38;;;;;;;19.91;60.56;100438.25;5046483;28;20155;-76
2021/07/10 04:44:32;;;;;;;11.80;5.82;;;;;;;20.02;60.90;100467.84;5036486;28;20140;-75
2021/07/10 04:46:59;;;;;;;13.27;5.53;;;;;;;19.96;61.06;100462.72;5037390;28;20080;-75
2021/07/10 04:49:26;;;;;;;9.48;5.07;;;;;;;19.88;61.02;100472.97;5049301;28;20056;-75
2021/07/10 04:51:53;;;;;;;14.35;5.80;;;;;;;19.81;61.17;100473.50;5042096;28;20095;-75
2021/07/10 04:54:20;;;;;;;13.93;5.80;;;;;;;19.74;61.55;100469.56;5033588;28;20085;-73
2021/07/10 04:56:46;;;;;;;16.50;5.93;;;;;;;19.68;61.62;100462.44;5044258;28;20108;-73
2021/07/10 04:59:13;;;;;;;10.52;5.10;;;;;;;19.65;61.68;100470.44;5044029;28;20543;-70
2021/07/10 05:01:40;;;;;;;15.82;6.63;;;;;;;19.41;61.75;100441.91;5041101;28;20112;-67
2021/07/10 05:04:07;;;;;;;18.33;5.82;;;;;;;19.37;61.97;100446.63;5043218;28;20125;-68
2021/07/10 05:06:34;;;;;;;10.93;5.57;;;;;;;19.63;62.15;100494.66;5040865;28;20465;-69
2021/07/10 05:09:02;;;;;;;11.10;6.70;;;;;;;19.68;61.91;100485.09;5038091;28;20084;-67
2021/07/10 05:11:29;;;;;;;14.98;5.35;;;;;;;19.64;62.00;100487.78;5047211;28;20057;-70
2021/07/10 05:13:58;;;;;;;12.80;5.93;;;;;;;19.64;62.15;100482.94;5048066;28;20088;-68
2021/07/10 05:16:25;;;;;;;10.43;5.05;;;;;;;19.08;62.27;100394.50;5039029;28;20445;-70
2021/07/10 05:18:52;;;;;;;14.50;5.15;;;;;;;19.80;62.20;100490.88;5046734;28;20040;-67
2021/07/10 05:21:23;;;;;;;10.00;5.18;;;;;;;19.86;61.80;100492.28;5034314;28;20052;-68
2021/07/10 05:23:51;;;;;;;10.88;4.32;;;;;;;19.93;61.56;100492.59;5036882;28;20137;-68
2021/07/10 05:26:18;;;;;;;12.48;4.88;;;;;;;19.96;61.53;100488.22;5044485;28;20115;-70
2021/07/10 05:28:44;;;;;;;8.27;4.30;;;;;;;20.06;61.03;100491.47;5033045;28;20076;-69
2021/07/10 05:31:11;;;;;;;7.10;4.28;;;;;;;20.02;60.96;100484.84;5039313;28;20588;-68
2021/07/10 05:33:38;;;;;;;13.13;5.63;;;;;;;20.13;60.93;100497.41;5040714;28;20476;-71
2021/07/10 05:36:05;;;;;;;14.07;5.57;;;;;;;20.21;61.07;100514.72;5046175;28;20094;-70
2021/07/10 05:38:32;;;;;;;10.38;5.57;;;;;;;20.30;61.15;100509.78;5041917;28;20128;-67
2021/07/10 05:40:59;;;;;;;12.57;6.32;;;;;;;20.45;60.97;100514.00;5048558;28;20124;-80
2021/07/10 05:43:26;;;;;;;12.35;5.55;;;;;;;20.19;60.85;100449.84;5035221;28;20560;-72
2021/07/10 05:45:54;;;;;;;9.63;4.85;;;;;;;20.73;60.62;100515.06;5042137;28;20052;-80
2021/07/10 05:48:21;;;;;;;15.38;6.30;;;;;;;20.87;60.44;100511.91;5032876;28;20056;-81
2021/07/10 05:50:49;;;;;;;13.95;6.60;;;;;;;21.04;60.20;100508.88;5031389;28;20128;-79
2021/07/10 05:53:15;;;;;;;17.30;7.18;;;;;;;21.22;60.25;100511.50;5032363;28;20128;-67
2021/07/10 05:55:42;;;;;;;14.63;8.02;;;;;;;21.15;59.83;100468.66;5042528;28;20073;-67
2021/07/10 05:58:11;;;;;;;13.90;7.57;;;;;;;21.55;59.81;100508.56;5044785;28;20861;-66
2021/07/10 06:00:38;;;;;;;21.17;8.40;;;;;;;21.72;59.49;100507.50;5041429;28;20076;-70
2021/07/10 06:03:05;;;;;;;19.55;9.07;;;;;;;22.02;58.94;100516.56;5032505;28;20533;-76
2021/07/10 06:05:32;;;;;;;16.60;8.68;;;;;;;22.18;58.95;100517.47;5050488;28;20045;-70
2021/07/10 06:07:59;;;;;;;17.67;8.45;;;;;;;22.00;58.61;100465.72;5034770;28;20401;-65
2021/07/10 06:10:26;;;;;;;13.57;6.97;;;;;;;22.36;58.39;100518.03;5033351;28;20519;-66
2021/07/10 06:12:53;;;;;;;17.48;7.63;;;;;;;22.50;58.26;100511.13;5042100;28;20042;-66
2021/07/10 06:15:20;;;;;;;12.68;7.18;;;;;;;22.67;58.27;100516.47;5040859;28;20041;-68
2021/07/10 06:17:47;;;;;;;13.23;6.78;;;;;;;22.87;58.15;100520.25;5041137;28;20141;-68
2021/07/10 06:20:16;;;;;;;13.23;7.22;;;;;;;23.03;57.31;100517.47;5032325;28;20055;-62
2021/07/10 06:22:46;;;;;;;16.02;8.65;;;;;;;23.12;57.12;100521.81;5045939;28;20076;-61
2021/07/10 06:25:14;;;;;;;18.63;9.95;;;;;;;23.14;56.57;100516.56;5033784;28;20047;-63
2021/07/10 06:27:43;;;;;;;17.92;8.30;;;;;;;23.28;56.27;100506.72;5069699;28;20127;-61
2021/07/10 06:30:12;;;;;;;17.98;7.95;;;;;;;23.50;56.06;100525.22;5031387;28;20825;-65
2021/07/10 06:32:39;;;;;;;19.60;8.20;;;;;;;23.67;55.70;100524.81;5051680;28;20152;-63
2021/07/10 06:35:08;;;;;;;16.65;5.97;;;;;;;23.82;55.02;100521.13;5044900;28;20052;-63
2021/07/10 06:37:35;;;;;;;11.43;5.97;;;;;;;24.04;54.97;100530.19;5043137;28;20441;-64
2021/07/10 06:40:05;;;;;;;11.48;6.88;;;;;;;24.24;54.25;100520.47;5036861;28;20385;-61
2021/07/10 06:42:31;;;;;;;16.13;7.25;;;;;;;24.40;54.00;100517.56;5035684;28;20633;-59
2021/07/10 06:44:58;;;;;;;15.25;6.95;;;;;;;24.67;53.26;100534.84;5036741;28;20501;-72
2021/07/10 06:47:25;;;;;;;12.85;6.40;;;;;;;24.79;52.94;100521.22;5033674;28;20128;-65
2021/07/10 06:49:52;;;;;;;15.73;7.25;;;;;;;25.08;52.63;100540.94;5034451;28;20045;-60
2021/07/10 06:52:19;;;;;;;10.35;7.32;;;;;;;25.38;51.80;100533.34;5035362;28;20160;-62
2021/07/10 06:54:46;;;;;;;9.55;5.72;;;;;;;25.52;51.69;100538.50;5034730;28;20136;-61
2021/07/10 06:57:13;;;;;;;12.40;6.47;;;;;;;25.66;51.01;100543.63;5029294;28;20488;-61
2021/07/10 06:59:40;;;;;;;9.10;5.85;;;;;;;25.70;51.16;100533.88;5032625;28;20561;-61
2021/07/10 07:02:07;;;;;;;11.32;6.65;;;;;;;25.84;50.67;100527.59;5033385;28;20132;-62
2021/07/10 07:04:34;;;;;;;11.95;6.85;;;;;;;26.11;50.26;100551.28;5035674;28;20045;-62
2021/07/10 07:07:01;;;;;;;9.18;5.60;;;;;;;26.31;49.95;100537.66;5045508;28;20088;-61
2021/07/10 07:09:28;;;;;;;10.55;5.85;;;;;;;26.50;49.49;100539.59;5044865;28;20132;-61
2021/07/10 07:11:54;;;;;;;14.55;5.97;;;;;;;26.65;49.15;100543.47;5035181;28;20506;-61
2021/07/10 07:14:21;;;;;;;9.95;5.93;;;;;;;26.65;49.10;100521.38;5037713;28;20073;-79
2021/07/10 07:16:48;;;;;;;9.90;5.75;;;;;;;26.84;48.56;100517.50;5037918;28;20045;-71
2021/07/10 07:19:15;;;;;;;12.82;6.05;;;;;;;27.10;48.44;100539.47;5040658;28;20052;-60
2021/07/10 07:21:42;;;;;;;15.07;6.22;;;;;;;27.17;47.81;100507.19;5037163;28;20124;-67
2021/07/10 07:24:09;;;;;;;11.13;5.47;;;;;;;27.67;47.36;100549.84;5050543;28;20100;-67
2021/07/10 07:26:36;;;;;;;10.95;6.15;;;;;;;27.88;46.78;100530.78;5036082;28;20507;-67
2021/07/10 07:29:04;;;;;;;10.82;6.22;;;;;;;28.05;46.35;100534.16;5044394;28;20079;-67
2021/07/10 07:31:30;;;;;;;11.90;6.00;;;;;;;28.02;46.26;100530.03;5042107;28;20128;-68
2021/07/10 07:33:57;;;;;;;11.20;5.65;;;;;;;28.26;46.00;100559.31;5040608;28;20045;-68
2021/07/10 07:36:24;;;;;;;16.83;6.32;;;;;;;28.30;45.62;100551.53;5052620;28;20128;-67
2021/07/10 07:38:51;;;;;;;11.80;6.72;;;;;;;28.38;45.48;100556.09;5046699;28;20092;-66
2021/07/10 07:41:18;;;;;;;8.70;4.88;;;;;;;28.51;45.18;100548.81;5047555;28;20140;-67
2021/07/10 07:43:46;;;;;;;7.60;4.88;;;;;;;28.72;44.48;100550.13;5039325;28;20048;-68
2021/07/10 07:46:14;;;;;;;11.05;5.85;;;;;;;28.97;43.99;100561.69;5036121;28;20069;-68
2021/07/10 07:48:43;;;;;;;10.35;5.35;;;;;;;29.20;43.36;100552.75;5038598;28;20060;-67
2021/07/10 07:51:15;;;;;;;10.25;5.13;;;;;;;29.31;43.42;100550.72;5051216;28;20139;-67
2021/07/10 07:53:43;;;;;;;10.43;5.13;;;;;;;29.42;42.57;100556.47;5045817;28;20084;-67
2021/07/10 07:56:10;;;;;;;10.48;5.40;;;;;;;29.61;42.31;100561.06;5042018;28;20160;-66
2021/07/10 07:58:41;;;;;;;7.55;4.40;;;;;;;29.73;41.99;100557.75;5045090;28;20041;-67
2021/07/10 08:01:10;;;;;;;10.43;4.38;;;;;;;29.82;41.93;100537.19;5039221;28;20051;-67
2021/07/10 08:03:37;;;;;;;7.07;4.50;;;;;;;30.01;41.48;100547.44;5037264;28;20089;-67
2021/07/10 08:06:05;;;;;;;8.90;4.53;;;;;;;30.21;41.08;100554.41;5038947;28;20072;-64
2021/07/10 08:08:36;;;;;;;6.28;3.90;;;;;;;30.09;40.37;100520.28;5044618;28;20073;-63
2021/07/10 08:11:04;;;;;;;6.65;4.32;;;;;;;30.53;40.09;100553.47;5043147;28;20057;-63
2021/07/10 08:13:33;;;;;;;8.07;4.25;;;;;;;30.69;39.56;100542.31;5042585;28;20128;-63
2021/07/10 08:16:00;;;;;;;7.07;3.90;;;;;;;30.71;39.53;100525.41;5044243;28;20041;-64
2021/07/10 08:18:28;;;;;;;12.60;5.68;;;;;;;30.96;39.31;100547.56;5042197;28;20045;-65
2021/07/10 08:20:54;;;;;;;11.48;7.93;;;;;;;31.06;38.58;100547.50;5032885;28;20888;-64
2021/07/10 08:23:21;;;;;;;9.27;4.32;;;;;;;31.13;38.49;100546.63;5039717;28;20079;-64
2021/07/10 08:25:48;;;;;;;7.85;4.53;;;;;;;31.24;38.35;100540.78;5038401;28;20132;-64
2021/07/10 08:28:15;;;;;;;8.88;4.03;;;;;;;31.49;37.92;100552.16;5036029;28;20080;-64
2021/07/10 08:30:42;;;;;;;7.32;4.32;;;;;;;31.64;37.23;100547.94;5050962;28;20587;-63
2021/07/10 08:33:12;;;;;;;6.38;3.65;;;;;;;31.68;37.11;100545.00;5044525;28;20132;-63
2021/07/10 08:35:39;;;;;;;5.30;2.90;;;;;;;31.80;37.02;100533.75;5040869;28;20049;-64
2021/07/10 08:38:06;;;;;;;7.00;3.20;;;;;;;31.97;36.32;100536.94;5035392;28;20128;-64
2021/07/10 08:40:33;;;;;;;3.92;3.10;;;;;;;32.19;35.86;100551.97;5058464;28;20069;-63
2021/07/10 08:43:00;;;;;;;6.28;3.85;;;;;;;32.35;35.70;100555.09;5043260;28;21085;-63
2021/07/10 08:45:31;;;;;;;7.13;3.63;;;;;;;32.36;35.29;100538.56;5037032;28;20144;-64
2021/07/10 08:48:00;;;;;;;7.10;3.65;;;;;;;32.53;34.74;100555.72;5034494;28;20053;-64
2021/07/10 08:50:27;;;;;;;4.43;2.60;;;;;;;32.71;34.79;100552.59;5036662;28;20050;-64
2021/07/10 08:52:55;;;;;;;5.53;3.80;;;;;;;32.80;33.96;100549.19;5044392;28;20077;-62
2021/07/10 08:55:22;;;;;;;5.28;3.30;;;;;;;32.93;34.19;100558.94;5039284;28;20143;-61
2021/07/10 08:57:50;;;;;;;4.82;3.05;;;;;;;33.11;33.37;100541.34;5031899;28;20049;-68
2021/07/10 09:00:19;;;;;;;4.57;2.67;;;;;;;33.21;33.00;100537.47;5034070;28;20589;-62
2021/07/10 09:02:49;;;;;;;;;;;;;;;33.06;35.17;100530.28;5040074;28;20139;-63
2021/07/10 09:05:17;;;;;;;8.48;2.83;;;;;;;33.21;33.60;100528.78;5038912;28;19979;-63
2021/07/10 09:08:13;;;;;;;6.10;2.72;;;;;;;33.12;34.17;100531.41;5044839;28;20136;-66
2021/07/10 09:10:41;;;;;;;4.88;2.85;;;;;;;33.21;33.97;100533.75;5043228;28;21018;-67
2021/07/10 09:13:08;;;;;;;4.90;3.27;;;;;;;33.27;33.67;100537.81;5043809;28;20073;-64
2021/07/10 09:15:35;;;;;;;5.05;2.97;;;;;;;33.28;33.31;100541.50;5041536;28;20298;-59
2021/07/10 09:18:09;;;;;;;5.75;3.20;;;;;;;33.10;33.13;100519.47;5068509;28;20120;-60
2021/07/10 09:20:39;;;;;;;7.22;3.20;;;;;;;33.01;33.55;100530.75;5069200;28;20041;-62
2021/07/10 09:23:27;;;;;;;5.82;3.25;;;;;;;32.84;33.63;100526.00;5047243;28;20072;-60
2021/07/10 09:26:10;;;;;;;5.13;3.25;;;;;;;33.00;33.81;100540.69;5034325;28;20046;-63
2021/07/10 09:28:37;;;;;;;5.93;3.20;;;;;;;33.15;33.35;100545.00;5038940;28;20129;-63
2021/07/10 09:31:13;;;;;;;5.88;3.30;;;;;;;33.10;33.16;100513.66;5039657;28;20457;-63
2021/07/10 09:33:40;;;;;;;5.55;3.50;;;;;;;33.28;33.14;100536.53;5037759;28;20374;-62
2021/07/10 09:36:07;;;;;;;4.70;3.35;;;;;;;33.29;32.78;100522.88;5034705;28;20041;-62
2021/07/10 09:38:34;;;;;;;7.10;3.50;;;;;;;33.22;32.72;100518.84;5035985;28;20544;-63
2021/07/10 09:41:07;;;;;;;7.95;3.65;;;;;;;33.36;32.44;100514.91;5035512;28;20155;-62
2021/07/10 09:43:38;;;;;;;7.57;3.28;;;;;;;33.34;32.27;100519.50;5039286;28;20102;-63
2021/07/10 09:46:08;;;;;;;7.57;3.28;;;;;;;33.01;31.92;100455.53;5047977;28;20045;-62
2021/07/10 09:48:40;;;;;;;6.97;3.75;;;;;;;33.41;32.05;100502.03;5035791;28;20052;-61
2021/07/10 09:51:25;;;;;;;8.38;3.83;;;;;;;33.37;32.32;100507.03;5031749;28;20171;-62
2021/07/10 09:54:01;;;;;;;6.80;3.42;;;;;;;33.46;32.25;100510.19;5037853;28;20127;-61
2021/07/10 09:56:30;;;;;;;4.93;3.00;;;;;;;33.59;32.04;100502.56;5049056;28;20049;-61
2021/07/10 09:58:58;;;;;;;7.15;3.65;;;;;;;33.80;31.86;100520.81;5033211;28;20176;-62
2021/07/10 10:01:36;;;;;;;7.80;3.10;;;;;;;33.80;31.69;100517.91;5043583;28;20140;-61
2021/07/10 10:04:29;;;;;;;7.60;3.95;;;;;;;33.82;31.82;100510.44;5044090;28;20055;-62
2021/07/10 10:07:02;;;;;;;9.30;4.07;;;;;;;33.71;31.69;100498.19;5032808;28;20096;-62
2021/07/10 10:09:30;;;;;;;6.05;3.58;;;;;;;33.70;31.86;100513.94;5043482;28;20132;-62
2021/07/10 10:12:00;;;;;;;5.70;3.80;;;;;;;33.59;31.84;100493.88;5048177;28;20133;-61
2021/07/10 10:14:30;;;;;;;4.63;3.50;;;;;;;33.67;31.61;100478.00;5040474;28;20103;-61
2021/07/10 10:17:00;;;;;;;6.10;3.30;;;;;;;33.88;31.26;100505.75;5029667;28;20128;-61
2021/07/10 10:19:31;;;;;;;5.18;3.03;;;;;;;33.97;30.53;100505.97;5033496;28;20045;-61
2021/07/10 10:22:00;;;;;;;5.40;3.42;;;;;;;33.99;30.64;100507.66;5043947;28;20045;-62
2021/07/10 10:24:29;;;;;;;6.55;3.47;;;;;;;34.05;30.92;100500.09;5037344;28;20137;-61
2021/07/10 10:26:57;;;;;;;3.47;2.53;;;;;;;34.05;30.61;100506.69;5038570;28;20071;-61
2021/07/10 10:29:27;;;;;;;4.40;3.38;;;;;;;34.05;30.95;100505.88;5035495;28;20377;-62
2021/07/10 10:31:54;;;;;;;5.60;3.78;;;;;;;34.06;31.53;100502.56;5044266;28;20076;-62
2021/07/10 10:34:21;;;;;;;7.45;3.45;;;;;;;34.10;31.01;100509.09;5038130;28;20133;-62
2021/07/10 10:36:50;;;;;;;6.72;3.35;;;;;;;34.18;30.92;100481.59;5045511;28;20128;-62
2021/07/10 10:39:24;;;;;;;6.53;3.88;;;;;;;34.06;31.22;100490.16;5045737;28;20225;-62
2021/07/10 10:41:55;;;;;;;7.50;3.40;;;;;;;34.06;31.59;100499.66;5038495;28;20072;-62
2021/07/10 10:44:25;;;;;;;4.85;3.00;;;;;;;33.92;31.29;100491.22;5046294;28;20038;-62
2021/07/10 10:46:56;;;;;;;7.57;3.47;;;;;;;34.01;31.54;100488.56;5044639;28;20131;-62
2021/07/10 10:49:46;;;;;;;4.75;3.42;;;;;;;34.11;31.43;100495.41;5047547;28;20106;-61
2021/07/10 10:52:19;;;;;;;5.10;3.28;;;;;;;34.11;31.27;100493.31;5041161;28;20552;-61
2021/07/10 10:54:50;;;;;;;5.72;3.58;;;;;;;34.17;31.09;100491.56;5040088;28;20124;-63
2021/07/10 10:57:28;;;;;;;5.47;3.80;;;;;;;34.30;30.82;100502.50;5057461;28;20125;-63
2021/07/10 10:59:56;;;;;;;6.18;3.38;;;;;;;34.27;31.13;100506.28;5039782;28;20244;-62
2021/07/10 11:02:23;;;;;;;6.30;3.88;;;;;;;34.40;30.78;100510.97;5044797;28;20124;-62
2021/07/10 11:04:59;;;;;;;6.38;3.58;;;;;;;34.67;30.26;100495.53;5031896;28;20081;-62
2021/07/10 11:07:26;;;;;;;6.00;3.83;;;;;;;34.94;29.58;100509.00;5036078;28;20072;-62
2021/07/10 11:10:02;;;;;;;4.85;3.13;;;;;;;35.00;29.26;100495.59;5035963;28;20075;-61
2021/07/10 11:12:58;;;;;;;11.07;3.53;;;;;;;35.07;29.81;100496.25;5041513;28;20088;-63
2021/07/10 11:15:25;;;;;;;4.40;3.53;;;;;;;35.19;29.65;100494.75;5041745;28;20129;-62
2021/07/10 11:17:59;;;;;;;9.20;3.70;;;;;;;34.78;29.96;100477.88;5034882;28;20045;-61
2021/07/10 11:20:41;;;;;;;5.78;3.28;;;;;;;34.76;30.67;100474.59;5037453;28;20045;-62
2021/07/10 11:23:34;;;;;;;6.22;3.78;;;;;;;34.52;30.78;100468.09;5044907;28;20132;-64
2021/07/10 11:26:17;;;;;;;5.13;3.40;;;;;;;34.18;30.84;100477.88;5031245;28;20516;-63